Time;durP1;ratioP1;P1;durP2;ratioP2;P2;SDS_P1;SDS_P2;PMS_P1;PMS_P2;Temp;Humidity;BMP_temperature;BMP_pressure;BME280_temperature;BME280_humidity;BME280_pressure;Samples;Min_cycle;Max_cycle;Signal;HPM_P1;HPM_P2
2022/03/07 00:00:54;;;;;;;;;;;0.20;99.00;;;;;;5093910;28;20270;-40
2022/03/07 00:03:19;;;;;;;;;;;0.20;99.50;;;;;;5093969;28;19916;-42
2022/03/07 00:05:45;;;;;;;;;;;0.30;99.10;;;;;;5092774;28;19948;-42
2022/03/07 00:08:10;;;;;;;;;;;0.10;99.30;;;;;;5094056;28;19908;-42
2022/03/07 00:10:36;;;;;;;;;;;0.00;99.30;;;;;;5094087;28;19908;-41
2022/03/07 00:13:02;;;;;;;;;;;-0.10;99.40;;;;;;5092802;28;20364;-41
2022/03/07 00:15:27;;;;;;;;;;;0.00;99.90;;;;;;5093751;28;19912;-41
2022/03/07 00:17:53;;;;;;;;;;;0.00;99.90;;;;;;5093669;28;19931;-41
2022/03/07 00:20:19;;;;;;;;;;;0.00;99.90;;;;;;5093799;28;19919;-41
2022/03/07 00:22:44;;;;;;;;;;;-0.10;99.90;;;;;;5093595;28;20251;-41
2022/03/07 00:25:10;;;;;;;;;;;-0.30;99.90;;;;;;5093995;28;19908;-41
2022/03/07 00:27:36;;;;;;;;;;;-0.20;99.90;;;;;;5093920;28;20347;-41
2022/03/07 00:30:02;;;;;;;;;;;-0.10;99.90;;;;;;5092418;28;19926;-41
2022/03/07 00:32:27;;;;;;;;;;;-0.20;99.90;;;;;;5093613;28;19908;-42
2022/03/07 00:34:54;;;;;;;;;;;-0.20;99.90;;;;;;5093963;28;19908;-41
2022/03/07 00:37:20;;;;;;;;;;;-0.20;99.90;;;;;;5093649;28;19958;-42
2022/03/07 00:39:45;;;;;;;;;;;-0.20;99.90;;;;;;5092747;28;19908;-41
2022/03/07 00:42:11;;;;;;;;;;;-0.30;99.90;;;;;;5093719;28;19974;-41
2022/03/07 00:44:37;;;;;;;;;;;-0.20;99.90;;;;;;5093842;28;20362;-41
2022/03/07 00:47:02;;;;;;;;;;;0.00;99.90;;;;;;5093481;28;19941;-41
2022/03/07 00:49:28;;;;;;;;;;;0.00;99.90;;;;;;5092489;28;19999;-41
2022/03/07 00:51:54;;;;;;;;;;;-0.10;99.90;;;;;;5092372;28;19908;-40
2022/03/07 00:54:19;;;;;;;;;;;-0.30;99.90;;;;;;5093671;28;19915;-41
2022/03/07 00:56:45;;;;;;;;;;;-0.30;99.90;;;;;;5092555;28;20282;-40
2022/03/07 00:59:10;;;;;;;;;;;-0.40;99.90;;;;;;5094458;28;20308;-40
2022/03/07 01:01:35;;;;;;;;;;;-0.30;99.90;;;;;;5097261;28;19934;-41
2022/03/07 01:04:01;;;;;;;;;;;-0.20;99.90;;;;;;5096986;28;19919;-41
2022/03/07 01:06:27;;;;;;;;;;;0.00;99.90;;;;;;5097032;28;19912;-41
2022/03/07 01:08:52;;;;;;;;;;;0.00;99.90;;;;;;5096033;28;19908;-41
2022/03/07 01:11:18;;;;;;;;;;;0.00;99.90;;;;;;5097255;28;19908;-41
2022/03/07 01:13:43;;;;;;;;;;;-0.30;99.90;;;;;;5096716;28;19970;-40
2022/03/07 01:16:09;;;;;;;;;;;-0.40;99.90;;;;;;5097151;28;19970;-41
2022/03/07 01:18:35;;;;;;;;;;;-0.40;99.90;;;;;;5096741;28;19908;-41
2022/03/07 01:21:00;;;;;;;;;;;-0.40;99.90;;;;;;5096838;28;19912;-41
2022/03/07 01:23:26;;;;;;;;;;;-0.40;99.90;;;;;;5096844;28;19916;-42
2022/03/07 01:25:51;;;;;;;;;;;-0.40;99.90;;;;;;5096842;28;19908;-40
2022/03/07 01:28:17;;;;;;;;;;;-0.40;99.90;;;;;;5096483;28;20347;-40
2022/03/07 01:30:42;;;;;;;;;;;-0.40;99.90;;;;;;5096575;28;19908;-40
2022/03/07 01:33:08;;;;;;;;;;;-0.50;99.90;;;;;;5096457;28;19918;-40
2022/03/07 01:35:33;;;;;;;;;;;-0.30;99.90;;;;;;5096745;28;19915;-40
2022/03/07 01:37:59;;;;;;;;;;;-0.40;99.90;;;;;;5096677;28;19950;-40
2022/03/07 01:40:25;;;;;;;;;;;-0.30;99.90;;;;;;5095241;28;19908;-40
2022/03/07 01:42:50;;;;;;;;;;;-0.40;99.90;;;;;;5096352;28;20263;-41
2022/03/07 01:45:17;;;;;;;;;;;-0.40;99.90;;;;;;5096496;28;19930;-41
2022/03/07 01:47:43;;;;;;;;;;;-0.30;99.90;;;;;;5096068;28;20334;-40
2022/03/07 01:50:10;;;;;;;;;;;-0.30;99.90;;;;;;5096305;28;19912;-40
2022/03/07 01:52:37;;;;;;;;;;;-0.20;99.90;;;;;;5096440;28;19909;-41
2022/03/07 01:55:03;;;;;;;;;;;-0.20;99.90;;;;;;5096425;28;19908;-41
2022/03/07 01:57:30;;;;;;;;;;;-0.20;99.90;;;;;;5096298;28;19935;-41
2022/03/07 01:59:56;;;;;;;;;;;-0.30;99.90;;;;;;5096208;28;19907;-41
2022/03/07 02:02:21;;;;;;;;;;;-0.40;99.90;;;;;;5096577;28;19919;-41
2022/03/07 02:04:47;;;;;;;;;;;-0.60;99.90;;;;;;5096171;28;19912;-41
2022/03/07 02:07:12;;;;;;;;;;;-0.60;99.90;;;;;;5096165;28;19908;-41
2022/03/07 02:09:38;;;;;;;;;;;-0.60;99.90;;;;;;5095740;28;20242;-40
2022/03/07 02:12:03;;;;;;;;;;;-0.60;99.90;;;;;;5094739;28;19908;-40
2022/03/07 02:14:30;;;;;;;;;;;-0.60;99.90;;;;;;5096044;28;19954;-41
2022/03/07 02:16:56;;;;;;;;;;;-0.70;99.90;;;;;;5096001;28;19939;-41
2022/03/07 02:19:21;;;;;;;;;;;-0.70;99.90;;;;;;5095606;28;20316;-41
2022/03/07 02:21:49;;;;;;;;;;;-0.70;99.90;;;;;;5095757;28;19912;-41
2022/03/07 02:24:15;;;;;;;;;;;-0.60;99.90;;;;;;5095736;28;19912;-41
2022/03/07 02:26:41;;;;;;;;;;;-0.70;99.90;;;;;;5095419;28;20305;-40
2022/03/07 02:29:07;;;;;;;;;;;-0.70;99.90;;;;;;5095444;28;19920;-40
2022/03/07 02:31:34;;;;;;;;;;;-0.70;99.90;;;;;;5095680;28;20045;-41
2022/03/07 02:34:00;;;;;;;;;;;-0.80;99.90;;;;;;5095372;28;19916;-40
2022/03/07 02:36:26;;;;;;;;;;;-0.70;99.90;;;;;;5095561;28;19914;-41
2022/03/07 02:38:51;;;;;;;;;;;-0.60;99.90;;;;;;5094259;28;19908;-41
2022/03/07 02:41:17;;;;;;;;;;;-0.60;99.90;;;;;;5095155;28;19966;-41
2022/03/07 02:43:43;;;;;;;;;;;-0.60;99.90;;;;;;5095473;28;19912;-41
2022/03/07 02:46:08;;;;;;;;;;;-0.70;99.90;;;;;;5094141;28;19962;-41
2022/03/07 02:48:34;;;;;;;;;;;-0.60;99.90;;;;;;5095027;28;19908;-41
2022/03/07 02:50:59;;;;;;;;;;;-0.80;99.90;;;;;;5095404;28;19908;-41
2022/03/07 02:53:26;;;;;;;;;;;-0.80;99.90;;;;;;5095267;28;19908;-41
2022/03/07 02:55:51;;;;;;;;;;;-0.70;99.90;;;;;;5095230;28;19908;-42
2022/03/07 02:58:17;;;;;;;;;;;-0.70;99.90;;;;;;5095464;28;19999;-41
2022/03/07 03:00:43;;;;;;;;;;;-0.70;99.90;;;;;;5093784;28;19908;-41
2022/03/07 03:03:08;;;;;;;;;;;-0.60;99.90;;;;;;5094770;28;19916;-41
2022/03/07 03:05:34;;;;;;;;;;;-0.50;99.90;;;;;;5095370;28;19908;-41
2022/03/07 03:07:59;;;;;;;;;;;-0.70;99.90;;;;;;5094740;28;19916;-41
2022/03/07 03:10:25;;;;;;;;;;;-0.80;99.90;;;;;;5094983;28;19912;-42
2022/03/07 03:12:50;;;;;;;;;;;-0.80;99.90;;;;;;5094904;28;19908;-41
2022/03/07 03:15:17;;;;;;;;;;;-0.80;99.90;;;;;;5094489;28;19953;-41
2022/03/07 03:17:43;;;;;;;;;;;-1.00;99.90;;;;;;5094525;28;19908;-41
2022/03/07 03:20:13;;;;;;;;;;;-0.90;99.90;;;;;;5094463;28;20344;-41
2022/03/07 03:22:39;;;;;;;;;;;-0.90;99.90;;;;;;5094512;28;19916;-41
2022/03/07 03:25:05;;;;;;;;;;;-0.80;99.90;;;;;;5094404;28;20286;-41
2022/03/07 03:27:31;;;;;;;;;;;-0.80;99.90;;;;;;5092949;28;19908;-41
2022/03/07 03:29:56;;;;;;;;;;;-0.80;99.90;;;;;;5094677;28;19920;-42
2022/03/07 03:32:22;;;;;;;;;;;-0.70;99.90;;;;;;5093421;28;19908;-41
2022/03/07 03:34:47;;;;;;;;;;;-0.80;99.90;;;;;;5093362;28;19908;-41
2022/03/07 03:37:13;;;;;;;;;;;-0.80;99.90;;;;;;5094437;28;19915;-41
2022/03/07 03:39:38;;;;;;;;;;;-0.90;99.90;;;;;;5094414;28;19920;-41
2022/03/07 03:42:05;;;;;;;;;;;-1.00;99.90;;;;;;5093010;28;19919;-41
2022/03/07 03:44:30;;;;;;;;;;;-1.10;99.90;;;;;;5093906;28;20363;-41
2022/03/07 03:46:56;;;;;;;;;;;-1.10;99.90;;;;;;5093847;28;19992;-41
2022/03/07 03:49:21;;;;;;;;;;;-1.00;99.90;;;;;;5094635;28;20311;-41
2022/03/07 03:51:47;;;;;;;;;;;-0.90;99.90;;;;;;5093950;28;20278;-41
2022/03/07 03:54:12;;;;;;;;;;;-1.00;99.90;;;;;;5094160;28;19909;-41
2022/03/07 03:56:38;;;;;;;;;;;-1.10;99.90;;;;;;5093949;28;19920;-41
2022/03/07 03:59:03;;;;;;;;;;;-1.00;99.90;;;;;;5094191;28;19915;-41
2022/03/07 04:01:29;;;;;;;;;;;-0.90;99.90;;;;;;5094074;28;19919;-42
2022/03/07 04:03:54;;;;;;;;;;;-0.90;99.90;;;;;;5094098;28;20362;-41
2022/03/07 04:06:20;;;;;;;;;;;-0.90;99.90;;;;;;5093781;28;20366;-41
2022/03/07 04:08:54;;;;;;;;;;;-0.90;99.90;;;;;;5094112;28;19912;-40
2022/03/07 04:11:21;;;;;;;;;;;-1.00;99.90;;;;;;5093669;28;19976;-42
2022/03/07 04:13:46;;;;;;;;;;;-1.00;99.90;;;;;;5093966;28;20267;-40
2022/03/07 04:16:12;;;;;;;;;;;-1.10;99.90;;;;;;5093852;28;19908;-41
2022/03/07 04:18:37;;;;;;;;;;;-1.10;99.90;;;;;;5093573;28;19916;-40
2022/03/07 04:21:03;;;;;;;;;;;-1.10;99.90;;;;;;5093556;28;19916;-41
2022/03/07 04:23:28;;;;;;;;;;;-1.00;99.90;;;;;;5093637;28;20378;-41
2022/03/07 04:25:54;;;;;;;;;;;-1.00;99.90;;;;;;5093889;28;19959;-42
2022/03/07 04:28:19;;;;;;;;;;;-1.00;99.90;;;;;;5093382;28;19927;-41
2022/03/07 04:30:45;;;;;;;;;;;-0.80;99.90;;;;;;5093389;28;19912;-41
2022/03/07 04:33:11;;;;;;;;;;;-0.80;99.90;;;;;;5093608;28;19912;-40
2022/03/07 04:35:37;;;;;;;;;;;-0.80;99.90;;;;;;5097303;28;19908;-41
2022/03/07 04:38:02;;;;;;;;;;;-0.90;99.90;;;;;;5097481;28;19995;-41
2022/03/07 04:40:28;;;;;;;;;;;-0.80;99.90;;;;;;5097488;28;19919;-41
2022/03/07 04:42:56;;;;;;;;;;;-0.70;99.90;;;;;;5097272;28;19923;-42
2022/03/07 04:45:21;;;;;;;;;;;-0.70;99.90;;;;;;5097680;28;20308;-41
2022/03/07 04:47:47;;;;;;;;;;;-0.70;99.90;;;;;;5093350;28;19908;-41
2022/03/07 04:50:13;;;;;;;;;;;-0.80;99.90;;;;;;5086999;28;19913;-41
2022/03/07 04:52:38;;;;;;;;;;;-0.80;99.90;;;;;;5093157;28;19946;-41
2022/03/07 04:55:04;;;;;;;;;;;-0.70;99.90;;;;;;5096239;28;19915;-41
2022/03/07 04:57:30;;;;;;;;;;;-0.70;99.90;;;;;;5097478;28;19912;-41
2022/03/07 04:59:55;;;;;;;;;;;-0.80;99.90;;;;;;5097354;28;20327;-42
2022/03/07 05:02:21;;;;;;;;;;;-0.70;99.90;;;;;;5097221;28;19912;-41
2022/03/07 05:04:47;;;;;;;;;;;-0.70;99.90;;;;;;5096926;28;20302;-41
2022/03/07 05:07:12;;;;;;;;;;;-0.70;99.90;;;;;;5096889;28;19931;-41
2022/03/07 05:09:38;;;;;;;;;;;-0.60;99.90;;;;;;5097039;28;19955;-41
2022/03/07 05:12:04;;;;;;;;;;;-0.50;99.90;;;;;;5096706;28;20311;-41
2022/03/07 05:14:29;;;;;;;;;;;-0.50;99.90;;;;;;5097114;28;19978;-41
2022/03/07 05:16:55;;;;;;;;;;;-0.40;99.90;;;;;;5096824;28;20343;-42
2022/03/07 05:19:20;;;;;;;;;;;-0.40;99.90;;;;;;5095756;28;19908;-41
2022/03/07 05:21:46;;;;;;;;;;;-0.50;99.90;;;;;;5097009;28;19965;-41
2022/03/07 05:24:11;;;;;;;;;;;-0.70;99.90;;;;;;5096144;28;19916;-40
2022/03/07 05:26:37;;;;;;;;;;;-0.80;99.90;;;;;;5096545;28;19912;-41
2022/03/07 05:29:03;;;;;;;;;;;-0.70;99.90;;;;;;5096730;28;19924;-41
2022/03/07 05:31:28;;;;;;;;;;;-0.90;99.90;;;;;;5096742;28;20284;-40
2022/03/07 05:33:54;;;;;;;;;;;-0.90;99.90;;;;;;5096586;28;19909;-41
2022/03/07 05:36:19;;;;;;;;;;;-1.00;99.90;;;;;;5096384;28;19912;-41
2022/03/07 05:38:45;;;;;;;;;;;-1.10;99.90;;;;;;5093844;28;19908;-41
2022/03/07 05:41:10;;;;;;;;;;;-1.10;99.90;;;;;;5093702;28;20000;-41
2022/03/07 05:43:36;;;;;;;;;;;-1.10;99.90;;;;;;5093809;28;19912;-41
2022/03/07 05:46:01;;;;;;;;;;;-0.90;99.90;;;;;;5092718;28;19909;-44
2022/03/07 05:48:27;;;;;;;;;;;-0.80;99.90;;;;;;5093720;28;19915;-42
2022/03/07 05:50:52;;;;;;;;;;;-0.80;99.90;;;;;;5093320;28;19919;-44
2022/03/07 05:53:21;;;;;;;;;;;-0.80;99.90;;;;;;5095567;28;19923;-41
2022/03/07 05:55:50;;;;;;;;;;;-0.70;99.90;;;;;;5096204;28;19915;-42
2022/03/07 05:58:15;;;;;;;;;;;-0.80;99.90;;;;;;5095642;28;19971;-41
2022/03/07 06:00:41;;;;;;;;;;;-0.80;99.90;;;;;;5094794;28;20000;-41
2022/03/07 06:03:07;;;;;;;;;;;-0.70;99.90;;;;;;5095825;28;19962;-41
2022/03/07 06:05:32;;;;;;;;;;;-0.70;99.90;;;;;;5095645;28;19908;-41
2022/03/07 06:07:58;;;;;;;;;;;-0.90;99.90;;;;;;5102850;28;19969;-41
2022/03/07 06:10:24;;;;;;;;;;;-1.00;99.90;;;;;;5102703;28;19912;-41
2022/03/07 06:12:49;;;;;;;;;;;-0.80;99.90;;;;;;5095151;28;19961;-42
2022/03/07 06:15:15;;;;;;;;;;;-1.00;99.90;;;;;;5100836;28;20286;-41
2022/03/07 06:17:51;;;;;;;;;;;-0.90;99.90;;;;;;5098542;28;19908;-41
2022/03/07 06:20:16;;;;;;;;;;;-1.10;99.90;;;;;;5094076;28;19957;-41
2022/03/07 06:22:42;;;;;;;;;;;-0.80;99.90;;;;;;5093284;28;19916;-42
2022/03/07 06:25:07;;;;;;;;;;;-0.60;99.90;;;;;;5093021;28;20372;-42
2022/03/07 06:27:33;;;;;;;;;;;-0.60;99.90;;;;;;5092803;28;19908;-42
2022/03/07 06:29:58;;;;;;;;;;;-0.80;99.90;;;;;;5092963;28;19994;-43
2022/03/07 06:32:24;;;;;;;;;;;-0.70;99.90;;;;;;5093195;28;20007;-43
2022/03/07 06:34:50;;;;;;;;;;;-0.80;99.90;;;;;;5092593;28;19908;-41
2022/03/07 06:37:16;;;;;;;;;;;-1.10;99.90;;;;;;5092770;28;20041;-42
2022/03/07 06:39:41;;;;;;;;;;;-0.90;99.90;;;;;;5092906;28;19957;-42
2022/03/07 06:42:07;;;;;;;;;;;-0.90;99.90;;;;;;5094714;28;20007;-41
2022/03/07 06:44:33;;;;;;;;;;;-1.10;99.90;;;;;;5094284;28;20011;-43
2022/03/07 06:46:59;;;;;;;;;;;-0.90;99.90;;;;;;5094574;28;20011;-42
2022/03/07 06:49:24;;;;;;;;;;;-0.60;99.90;;;;;;5094831;28;19915;-41
2022/03/07 06:51:50;;;;;;;;;;;-0.70;99.90;;;;;;5094440;28;19914;-41
2022/03/07 06:54:16;;;;;;;;;;;-0.70;99.90;;;;;;5093481;28;19908;-43
2022/03/07 06:56:41;;;;;;;;;;;-0.60;99.90;;;;;;5093071;28;19919;-40
2022/03/07 06:59:07;;;;;;;;;;;-0.60;99.90;;;;;;5094007;28;19950;-41
2022/03/07 07:01:33;;;;;;;;;;;-0.50;99.90;;;;;;5094182;28;19919;-41
2022/03/07 07:03:58;;;;;;;;;;;-0.40;99.90;;;;;;5094266;28;20004;-42
2022/03/07 07:06:24;;;;;;;;;;;-0.50;99.90;;;;;;5094354;28;19908;-40
2022/03/07 07:08:49;;;;;;;;;;;-0.70;99.90;;;;;;5094152;28;20064;-41
2022/03/07 07:11:15;;;;;;;;;;;-0.70;99.90;;;;;;5093807;28;19908;-41
2022/03/07 07:13:40;;;;;;;;;;;-0.80;99.90;;;;;;5093814;28;20329;-42
2022/03/07 07:16:06;;;;;;;;;;;-0.80;99.90;;;;;;5094105;28;20007;-41
2022/03/07 07:18:31;;;;;;;;;;;-0.70;99.90;;;;;;5093716;28;19951;-41
2022/03/07 07:20:57;;;;;;;;;;;-0.90;99.90;;;;;;5094166;28;20002;-42
2022/03/07 07:23:22;;;;;;;;;;;-0.70;99.90;;;;;;5093837;28;20365;-41
2022/03/07 07:25:48;;;;;;;;;;;-0.60;99.90;;;;;;5094542;28;19919;-42
2022/03/07 07:28:14;;;;;;;;;;;-0.30;99.90;;;;;;5093641;28;19908;-42
2022/03/07 07:30:39;;;;;;;;;;;-0.10;99.90;;;;;;5093687;28;19912;-42
2022/03/07 07:33:06;;;;;;;;;;;-0.20;99.90;;;;;;5093613;28;19991;-40
2022/03/07 07:35:33;;;;;;;;;;;-0.10;99.90;;;;;;5094170;28;20015;-40
2022/03/07 07:38:00;;;;;;;;;;;-0.20;99.90;;;;;;5091447;28;19916;-41
2022/03/07 07:40:25;;;;;;;;;;;-0.20;99.90;;;;;;5093401;28;20317;-42
2022/03/07 07:42:51;;;;;;;;;;;0.10;99.90;;;;;;5093352;28;19912;-41
2022/03/07 07:45:16;;;;;;;;;;;0.30;99.90;;;;;;5093325;28;19968;-41
2022/03/07 07:47:43;;;;;;;;;;;0.50;99.90;;;;;;5093757;28;19962;-40
2022/03/07 07:50:08;;;;;;;;;;;0.40;99.90;;;;;;5093772;28;19947;-42
2022/03/07 07:52:34;;;;;;;;;;;0.50;99.90;;;;;;5093199;28;19908;-42
2022/03/07 07:54:59;;;;;;;;;;;0.40;99.90;;;;;;5092665;28;19916;-42
2022/03/07 07:57:25;;;;;;;;;;;0.50;99.90;;;;;;5093608;28;20043;-42
2022/03/07 07:59:51;;;;;;;;;;;0.50;99.90;;;;;;5092514;28;19951;-42
2022/03/07 08:02:16;;;;;;;;;;;0.60;99.90;;;;;;5093247;28;20003;-41
2022/03/07 08:04:41;;;;;;;;;;;0.60;99.90;;;;;;5093045;28;19936;-41
2022/03/07 08:07:07;;;;;;;;;;;1.00;99.90;;;;;;5093006;28;19908;-43
2022/03/07 08:09:34;;;;;;;;;;;1.00;99.90;;;;;;5096512;28;19920;-46
2022/03/07 08:12:00;;;;;;;;;;;1.20;99.90;;;;;;5093025;28;20273;-42
2022/03/07 08:14:26;;;;;;;;;;;0.60;99.90;;;;;;5093355;28;19995;-42
2022/03/07 08:16:51;;;;;;;;;;;0.60;99.90;;;;;;5098138;28;19919;-42
2022/03/07 08:19:17;;;;;;;;;;;0.80;99.90;;;;;;5098249;28;19918;-42
2022/03/07 08:21:43;;;;;;;;;;;0.50;99.90;;;;;;5092762;28;19942;-42
2022/03/07 08:24:08;;;;;;;;;;;0.40;99.90;;;;;;5091876;28;19916;-41
2022/03/07 08:26:34;;;;;;;;;;;0.40;99.90;;;;;;5093388;28;20343;-42
2022/03/07 08:28:59;;;;;;;;;;;0.40;99.90;;;;;;5093353;28;19943;-42
2022/03/07 08:31:25;;;;;;;;;;;0.30;99.90;;;;;;5091719;28;20338;-41
2022/03/07 08:33:50;;;;;;;;;;;0.50;99.90;;;;;;5092784;28;20362;-40
2022/03/07 08:36:16;;;;;;;;;;;0.50;99.90;;;;;;5089508;28;19908;-42
2022/03/07 08:38:41;;;;;;;;;;;0.40;99.90;;;;;;5091841;28;20316;-41
2022/03/07 08:41:07;;;;;;;;;;;0.60;99.90;;;;;;5092794;28;20259;-41
2022/03/07 08:43:33;;;;;;;;;;;0.70;99.90;;;;;;5092163;28;20301;-41
2022/03/07 08:45:58;;;;;;;;;;;0.60;99.90;;;;;;5079204;28;19974;-42
2022/03/07 08:48:24;;;;;;;;;;;0.70;99.90;;;;;;5075881;28;20329;-40
2022/03/07 08:50:50;;;;;;;;;;;1.20;99.90;;;;;;5073143;28;20331;-41
2022/03/07 08:53:16;;;;;;;;;;;1.40;99.90;;;;;;5085663;28;19972;-40
2022/03/07 08:55:42;;;;;;;;;;;1.20;99.90;;;;;;5093152;28;19911;-41
2022/03/07 08:58:07;;;;;;;;;;;1.10;99.90;;;;;;5092707;28;19904;-40
2022/03/07 09:00:33;;;;;;;;;;;1.50;99.90;;;;;;5092801;28;19957;-39
2022/03/07 09:02:59;;;;;;;;;;;1.80;99.90;;;;;;5094537;28;19923;-41
2022/03/07 09:05:25;;;;;;;;;;;1.40;99.90;;;;;;5083436;28;20256;-41
2022/03/07 09:07:51;;;;;;;;;;;1.00;99.90;;;;;;5073279;28;20030;-41
2022/03/07 09:10:16;;;;;;;;;;;1.20;99.90;;;;;;5078101;28;19919;-41
2022/03/07 09:12:42;;;;;;;;;;;1.60;99.90;;;;;;5096113;28;19995;-40
2022/03/07 09:15:07;;;;;;;;;;;1.90;99.90;;;;;;5080155;28;19913;-42
2022/03/07 09:17:33;;;;;;;;;;;1.80;99.90;;;;;;5083177;28;19916;-42
2022/03/07 09:19:59;;;;;;;;;;;2.10;99.90;;;;;;5083842;28;19977;-41
2022/03/07 09:22:25;;;;;;;;;;;2.20;99.90;;;;;;5083674;28;19924;-41
2022/03/07 09:24:51;;;;;;;;;;;2.10;99.90;;;;;;5086437;28;19918;-43
2022/03/07 09:27:16;;;;;;;;;;;1.60;99.90;;;;;;5076086;28;20087;-41
2022/03/07 09:29:42;;;;;;;;;;;1.40;99.90;;;;;;5076263;28;19920;-41
2022/03/07 09:32:07;;;;;;;;;;;1.00;99.90;;;;;;5076141;28;19909;-42
2022/03/07 09:34:34;;;;;;;;;;;0.90;99.90;;;;;;5075811;28;19908;-41
2022/03/07 09:36:59;;;;;;;;;;;0.90;99.90;;;;;;5075597;28;19924;-42
2022/03/07 09:39:25;;;;;;;;;;;1.20;99.90;;;;;;5078336;28;19912;-41
2022/03/07 09:41:51;;;;;;;;;;;1.40;99.90;;;;;;5090257;28;19923;-42
2022/03/07 09:44:16;;;;;;;;;;;1.40;99.90;;;;;;5082542;28;19931;-44
2022/03/07 09:46:42;;;;;;;;;;;1.70;99.90;;;;;;5089510;28;20385;-44
2022/03/07 09:49:08;;;;;;;;;;;1.80;99.90;;;;;;5109572;28;19915;-41
2022/03/07 09:51:34;;;;;;;;;;;1.60;99.90;;;;;;5114956;28;19908;-43
2022/03/07 09:54:00;;;;;;;;;;;1.90;99.90;;;;;;5095709;28;19943;-40
2022/03/07 09:56:26;;;;;;;;;;;2.40;99.90;;;;;;5094387;28;20000;-42
2022/03/07 09:58:51;;;;;;;;;;;2.60;99.90;;;;;;5094648;28;19919;-43
2022/03/07 10:01:20;;;;;;;;;;;2.10;99.90;;;;;;5095739;28;19920;-42
2022/03/07 10:03:46;;;;;;;;;;;2.10;99.90;;;;;;5094771;28;19956;-42
2022/03/07 10:06:16;;;;;;;;;;;2.40;99.90;;;;;;5094248;28;19995;-42
2022/03/07 10:08:51;;;;;;;;;;;2.60;99.80;;;;;;5094394;28;19920;-41
2022/03/07 10:11:17;;;;;;;;;;;2.30;99.90;;;;;;5094434;28;19912;-42
2022/03/07 10:13:49;;;;;;;;;;;2.50;99.90;;;;;;5105931;28;19915;-42
2022/03/07 10:16:15;;;;;;;;;;;1.90;99.90;;;;;;5113816;28;19995;-42
2022/03/07 10:18:47;;;;;;;;;;;1.90;99.90;;;;;;5095608;28;20334;-42
2022/03/07 10:21:20;;;;;;;;;;;2.50;99.70;;;;;;5094919;28;20366;-41
2022/03/07 10:23:56;;;;;;;;;;;2.70;99.00;;;;;;5092295;28;19912;-42
2022/03/07 10:26:22;;;;;;;;;;;2.80;99.30;;;;;;5091597;28;19912;-41
2022/03/07 10:28:55;;;;;;;;;;;3.10;99.00;;;;;;5081480;28;20247;-41
2022/03/07 10:31:21;;;;;;;;;;;2.90;98.80;;;;;;5076932;28;19913;-42
2022/03/07 10:33:48;;;;;;;;;;;2.20;99.90;;;;;;5102271;28;19965;-42
2022/03/07 10:36:14;;;;;;;;;;;2.20;99.90;;;;;;5100360;28;19913;-42
2022/03/07 10:38:41;;;;;;;;;;;2.40;99.90;;;;;;5110035;28;19912;-43
2022/03/07 10:41:07;;;;;;;;;;;2.50;99.90;;;;;;5105216;28;19955;-42
2022/03/07 10:43:33;;;;;;;;;;;2.20;99.90;;;;;;5138776;27;20294;-41
2022/03/07 10:46:00;;;;;;;;;;;2.20;99.90;;;;;;5093714;28;19917;-42
2022/03/07 10:48:27;;;;;;;;;;;1.90;99.90;;;;;;5075211;28;19919;-42
2022/03/07 10:50:57;;;;;;;;;;;2.00;99.90;;;;;;5083808;28;19912;-42
2022/03/07 10:53:23;;;;;;;;;;;2.60;99.90;;;;;;5102002;28;19912;-41
2022/03/07 10:55:56;;;;;;;;;;;2.70;99.40;;;;;;5090344;28;20329;-41
2022/03/07 10:58:22;;;;;;;;;;;2.90;98.40;;;;;;5088041;28;19912;-42
2022/03/07 11:00:51;;;;;;;;;;;2.90;98.60;;;;;;5087057;28;19920;-41
2022/03/07 11:03:17;;;;;;;;;;;2.40;99.20;;;;;;5094263;28;19923;-42
2022/03/07 11:05:43;;;;;;;;;;;2.20;99.70;;;;;;5083322;28;20025;-42
2022/03/07 11:08:09;;;;;;;;;;;2.20;99.50;;;;;;5091308;28;20015;-41
2022/03/07 11:10:34;;;;;;;;;;;2.30;98.90;;;;;;5089287;28;19939;-41
2022/03/07 11:13:00;;;;;;;;;;;2.80;98.20;;;;;;5078358;28;20426;-41
2022/03/07 11:15:26;;;;;;;;;;;3.10;97.80;;;;;;5093410;28;20424;-44
2022/03/07 11:17:52;;;;;;;;;;;2.50;98.60;;;;;;5092828;28;19915;-42
2022/03/07 11:20:17;;;;;;;;;;;2.30;99.20;;;;;;5092999;28;19919;-42
2022/03/07 11:22:43;;;;;;;;;;;2.40;98.40;;;;;;5093624;28;19961;-42
2022/03/07 11:25:09;;;;;;;;;;;2.90;98.10;;;;;;5081601;28;19978;-41
2022/03/07 11:27:36;;;;;;;;;;;3.00;97.80;;;;;;5074241;28;19912;-41
2022/03/07 11:30:15;;;;;;;;;;;3.00;97.80;;;;;;5082816;28;19920;-42
2022/03/07 11:32:40;;;;;;;;;;;2.50;98.50;;;;;;5086470;28;19960;-42
2022/03/07 11:35:06;;;;;;;;;;;3.10;98.00;;;;;;5093704;28;19920;-42
2022/03/07 11:37:32;;;;;;;;;;;3.50;97.10;;;;;;5086970;28;20319;-41
2022/03/07 11:39:59;;;;;;;;;;;3.40;96.60;;;;;;5090206;28;19912;-42
2022/03/07 11:42:38;;;;;;;;;;;2.40;97.60;;;;;;5092202;28;19916;-44
2022/03/07 11:45:05;;;;;;;;;;;1.80;98.30;;;;;;5092228;28;20428;-42
2022/03/07 11:47:35;;;;;;;;;;;1.60;99.00;;;;;;5093219;28;19912;-42
2022/03/07 11:50:01;;;;;;;;;;;1.60;99.60;;;;;;5079068;28;19912;-42
2022/03/07 11:52:26;;;;;;;;;;;1.60;99.80;;;;;;5076382;28;20388;-42
2022/03/07 11:54:56;;;;;;;;;;;1.60;99.20;;;;;;5093778;28;19908;-41
2022/03/07 11:57:32;;;;;;;;;;;1.60;99.20;;;;;;5087959;28;19912;-43
2022/03/07 12:00:09;;;;;;;;;;;1.70;99.00;;;;;;5078656;28;20011;-41
2022/03/07 12:03:00;;;;;;;;;;;1.60;99.20;;;;;;5088742;28;19922;-41
2022/03/07 12:05:26;;;;;;;;;;;2.00;98.90;;;;;;5088348;28;19916;-43
2022/03/07 12:07:51;;;;;;;;;;;2.00;98.60;;;;;;5093028;28;19971;-41
2022/03/07 12:10:17;;;;;;;;;;;1.90;98.80;;;;;;5092940;28;20019;-42
2022/03/07 12:12:43;;;;;;;;;;;2.60;98.00;;;;;;5093287;28;19916;-42
2022/03/07 12:15:09;;;;;;;;;;;3.20;96.90;;;;;;5092691;28;19969;-43
2022/03/07 12:17:35;;;;;;;;;;;2.80;96.70;;;;;;5092797;28;20274;-42
2022/03/07 12:20:00;;;;;;;;;;;2.20;97.60;;;;;;5090107;28;20010;-43
2022/03/07 12:22:27;;;;;;;;;;;2.20;97.40;;;;;;5092125;28;19957;-42
2022/03/07 12:24:56;;;;;;;;;;;2.10;97.80;;;;;;5092571;28;20011;-41
2022/03/07 12:27:25;;;;;;;;;;;2.10;97.70;;;;;;5091760;28;19915;-43
2022/03/07 12:29:54;;;;;;;;;;;1.90;98.10;;;;;;5091768;28;19920;-41
2022/03/07 12:32:20;;;;;;;;;;;2.00;97.90;;;;;;5089777;28;19961;-42
2022/03/07 12:34:46;;;;;;;;;;;1.80;98.30;;;;;;5085930;28;19928;-41
2022/03/07 12:37:20;;;;;;;;;;;1.70;97.80;;;;;;5072000;28;19919;-44
2022/03/07 12:39:46;;;;;;;;;;;1.60;98.00;;;;;;5081930;28;19955;-42
2022/03/07 12:42:12;;;;;;;;;;;1.80;98.00;;;;;;5086466;28;19959;-43
2022/03/07 12:44:38;;;;;;;;;;;2.00;97.60;;;;;;5073395;28;19917;-40
2022/03/07 12:47:04;;;;;;;;;;;1.80;97.70;;;;;;5083202;28;19912;-44
2022/03/07 12:49:32;;;;;;;;;;;1.80;97.30;;;;;;5090323;28;19909;-41
2022/03/07 12:52:00;;;;;;;;;;;1.80;97.70;;;;;;5088937;28;20366;-40
2022/03/07 12:54:28;;;;;;;;;;;2.10;97.90;;;;;;5092909;28;19908;-41
2022/03/07 12:56:53;;;;;;;;;;;2.80;97.20;;;;;;5088013;28;19916;-41
2022/03/07 12:59:26;;;;;;;;;;;2.60;96.70;;;;;;5077319;28;19912;-41
2022/03/07 13:01:51;;;;;;;;;;;2.10;97.00;;;;;;5077416;28;19940;-41
2022/03/07 13:04:18;;;;;;;;;;;2.60;98.00;;;;;;5084918;28;20371;-41
2022/03/07 13:06:48;;;;;;;;;;;3.30;96.50;;;;;;5078233;28;20011;-42
2022/03/07 13:09:15;;;;;;;;;;;3.10;96.00;;;;;;5082382;28;19912;-41
2022/03/07 13:11:47;;;;;;;;;;;2.80;96.80;;;;;;5103606;28;19943;-42
2022/03/07 13:14:22;;;;;;;;;;;2.40;96.70;;;;;;5117447;28;19908;-41
2022/03/07 13:16:48;;;;;;;;;;;2.20;96.90;;;;;;5113132;27;19911;-41
2022/03/07 13:19:13;;;;;;;;;;;2.40;96.10;;;;;;5117140;28;19957;-42
2022/03/07 13:21:43;;;;;;;;;;;2.30;96.00;;;;;;5101503;28;20363;-42
2022/03/07 13:24:10;;;;;;;;;;;2.30;96.10;;;;;;5091820;28;19928;-42
2022/03/07 13:26:35;;;;;;;;;;;2.00;96.20;;;;;;5083477;28;20347;-43
2022/03/07 13:29:14;;;;;;;;;;;2.10;96.90;;;;;;5090533;28;20018;-42
2022/03/07 13:31:44;;;;;;;;;;;2.00;96.20;;;;;;5100951;28;20385;-40
2022/03/07 13:34:10;;;;;;;;;;;2.10;96.60;;;;;;5094289;28;19916;-42
2022/03/07 13:36:43;;;;;;;;;;;2.40;95.90;;;;;;5110891;28;19984;-42
2022/03/07 13:39:18;;;;;;;;;;;2.40;95.70;;;;;;5116420;28;19908;-41
2022/03/07 13:41:52;;;;;;;;;;;2.50;95.90;;;;;;5099013;28;19924;-41
2022/03/07 13:44:17;;;;;;;;;;;2.00;95.60;;;;;;5095396;28;19951;-41
2022/03/07 13:46:52;;;;;;;;;;;2.00;96.00;;;;;;5094263;28;20363;-40
2022/03/07 13:49:18;;;;;;;;;;;2.50;96.20;;;;;;5094492;28;20334;-42
2022/03/07 13:51:43;;;;;;;;;;;2.60;95.60;;;;;;5093572;28;19960;-41
2022/03/07 13:54:09;;;;;;;;;;;2.60;95.60;;;;;;5094578;28;19916;-42
2022/03/07 13:56:34;;;;;;;;;;;2.60;95.30;;;;;;5094857;28;19912;-42
2022/03/07 13:59:09;;;;;;;;;;;2.30;95.90;;;;;;5094169;28;19908;-42
2022/03/07 14:01:35;;;;;;;;;;;2.70;95.70;;;;;;5094457;28;20263;-41
2022/03/07 14:04:11;;;;;;;;;;;2.90;95.30;;;;;;5094717;28;19923;-44
2022/03/07 14:06:36;;;;;;;;;;;2.30;94.70;;;;;;5093443;28;19908;-43
2022/03/07 14:09:02;;;;;;;;;;;2.40;95.40;;;;;;5094486;28;20381;-43
2022/03/07 14:11:27;;;;;;;;;;;2.40;95.60;;;;;;5094417;28;19920;-41
2022/03/07 14:13:54;;;;;;;;;;;2.50;95.40;;;;;;5094665;28;19916;-42
2022/03/07 14:16:19;;;;;;;;;;;2.40;96.30;;;;;;5094735;28;19918;-42
2022/03/07 14:18:46;;;;;;;;;;;2.50;95.10;;;;;;5090691;28;19913;-41